Mali Ston, Croatia
Current Conditions -  °F | °C
As of 6:00 AM on Friday 19 Dec 2014 (Local Time) from LDDU Reporting Station
Clear Clear  
Wind Chill: 50°   Ceiling: Unl
Heat Index: 50°   Visibility: 6mi
Dew Point: 36°   Wind: 10mph
Humidity: 58%   Direction: 30°NNE
Pressure: 30.18"   Gusts: NA
Location:  42.84°N, 17.69°E
Report Text: LDDU 190400Z 03009KT 340V060 CAVOK 10/02 Q1022 NOSIG
Loading
Personal Weather Stations






























Interactive Weather Map New forecast layout! Learn more

10-Day Weather Forecast

Advertisements
Track Severe Weather on mobile